sensor_id;sensor_type;location;lat;lon;timestamp;P1;P2;P0
30342;PMS5003;17145;49.902;8.680;2023-04-03T00:01:00;4;4;
30342;PMS5003;17145;49.902;8.680;2023-04-03T00:03:28;4;4;
30342;PMS5003;17145;49.902;8.680;2023-04-03T00:05:56;9;8;
30342;PMS5003;17145;49.902;8.680;2023-04-03T00:08:24;4;4;
30342;PMS5003;17145;49.902;8.680;2023-04-03T00:10:51;4;4;
30342;PMS5003;17145;49.902;8.680;2023-04-03T00:13:19;6;4;
30342;PMS5003;17145;49.902;8.680;2023-04-03T00:15:47;4;3;
30342;PMS5003;17145;49.902;8.680;2023-04-03T00:18:14;5;5;
30342;PMS5003;17145;49.902;8.680;2023-04-03T00:20:42;3;3;
30342;PMS5003;17145;49.902;8.680;2023-04-03T00:23:10;4;3;
30342;PMS5003;17145;49.902;8.680;2023-04-03T00:25:38;4;3;
30342;PMS5003;17145;49.902;8.680;2023-04-03T00:28:05;6;5;
30342;PMS5003;17145;49.902;8.680;2023-04-03T00:30:33;5;4;
30342;PMS5003;17145;49.902;8.680;2023-04-03T00:33:01;4;3;
30342;PMS5003;17145;49.902;8.680;2023-04-03T00:35:29;4;3;
30342;PMS5003;17145;49.902;8.680;2023-04-03T00:37:57;5;3;
30342;PMS5003;17145;49.902;8.680;2023-04-03T00:40:25;4;4;
30342;PMS5003;17145;49.902;8.680;2023-04-03T00:42:55;3;3;
30342;PMS5003;17145;49.902;8.680;2023-04-03T00:45:31;6;5;
30342;PMS5003;17145;49.902;8.680;2023-04-03T00:48:03;6;5;
30342;PMS5003;17145;49.902;8.680;2023-04-03T00:50:32;4;3;
30342;PMS5003;17145;49.902;8.680;2023-04-03T00:53:02;3;3;
30342;PMS5003;17145;49.902;8.680;2023-04-03T00:55:31;3;3;
30342;PMS5003;17145;49.902;8.680;2023-04-03T00:58:00;4;3;
30342;PMS5003;17145;49.902;8.680;2023-04-03T01:00:29;4;4;
30342;PMS5003;17145;49.902;8.680;2023-04-03T01:02:57;4;3;
30342;PMS5003;17145;49.902;8.680;2023-04-03T01:05:25;4;4;
30342;PMS5003;17145;49.902;8.680;2023-04-03T01:07:52;4;3;
30342;PMS5003;17145;49.902;8.680;2023-04-03T01:10:20;2;2;
30342;PMS5003;17145;49.902;8.680;2023-04-03T01:12:49;4;4;
30342;PMS5003;17145;49.902;8.680;2023-04-03T01:15:20;4;3;
30342;PMS5003;17145;49.902;8.680;2023-04-03T01:17:49;4;3;
30342;PMS5003;17145;49.902;8.680;2023-04-03T01:23:05;3;3;
30342;PMS5003;17145;49.902;8.680;2023-04-03T01:25:41;3;3;
30342;PMS5003;17145;49.902;8.680;2023-04-03T01:28:11;3;2;
30342;PMS5003;17145;49.902;8.680;2023-04-03T01:30:43;2;1;
30342;PMS5003;17145;49.902;8.680;2023-04-03T01:33:16;3;3;
30342;PMS5003;17145;49.902;8.680;2023-04-03T01:35:44;4;3;
30342;PMS5003;17145;49.902;8.680;2023-04-03T01:38:11;4;3;
30342;PMS5003;17145;49.902;8.680;2023-04-03T01:40:39;1;1;
30342;PMS5003;17145;49.902;8.680;2023-04-03T01:43:06;5;3;
30342;PMS5003;17145;49.902;8.680;2023-04-03T01:45:34;4;1;
30342;PMS5003;17145;49.902;8.680;2023-04-03T01:48:02;3;2;
30342;PMS5003;17145;49.902;8.680;2023-04-03T01:50:30;2;2;
30342;PMS5003;17145;49.902;8.680;2023-04-03T01:52:58;3;3;
30342;PMS5003;17145;49.902;8.680;2023-04-03T01:55:25;3;2;
30342;PMS5003;17145;49.902;8.680;2023-04-03T01:57:53;3;3;
30342;PMS5003;17145;49.902;8.680;2023-04-03T02:00:21;4;3;
30342;PMS5003;17145;49.902;8.680;2023-04-03T02:02:48;3;2;
30342;PMS5003;17145;49.902;8.680;2023-04-03T02:05:16;2;2;
30342;PMS5003;17145;49.902;8.680;2023-04-03T02:07:43;3;2;
30342;PMS5003;17145;49.902;8.680;2023-04-03T02:10:12;2;2;
30342;PMS5003;17145;49.902;8.680;2023-04-03T02:12:39;2;2;
30342;PMS5003;17145;49.902;8.680;2023-04-03T02:15:07;2;2;
30342;PMS5003;17145;49.902;8.680;2023-04-03T02:17:35;3;3;
30342;PMS5003;17145;49.902;8.680;2023-04-03T02:20:03;9;7;
30342;PMS5003;17145;49.902;8.680;2023-04-03T02:22:31;3;3;
30342;PMS5003;17145;49.902;8.680;2023-04-03T02:24:59;1;1;
30342;PMS5003;17145;49.902;8.680;2023-04-03T02:27:26;2;1;
30342;PMS5003;17145;49.902;8.680;2023-04-03T02:29:54;5;5;
30342;PMS5003;17145;49.902;8.680;2023-04-03T02:32:21;12;12;
30342;PMS5003;17145;49.902;8.680;2023-04-03T02:34:49;1;1;
30342;PMS5003;17145;49.902;8.680;2023-04-03T02:37:16;25;25;
30342;PMS5003;17145;49.902;8.680;2023-04-03T02:39:44;1;1;
30342;PMS5003;17145;49.902;8.680;2023-04-03T02:42:12;1;1;
30342;PMS5003;17145;49.902;8.680;2023-04-03T02:44:40;1;1;
30342;PMS5003;17145;49.902;8.680;2023-04-03T02:47:07;1;1;
30342;PMS5003;17145;49.902;8.680;2023-04-03T02:49:34;1;1;
30342;PMS5003;17145;49.902;8.680;2023-04-03T02:52:02;1;1;
30342;PMS5003;17145;49.902;8.680;2023-04-03T02:54:30;0;0;
30342;PMS5003;17145;49.902;8.680;2023-04-03T02:56:57;2;2;
30342;PMS5003;17145;49.902;8.680;2023-04-03T02:59:25;3;3;
30342;PMS5003;17145;49.902;8.680;2023-04-03T03:01:53;3;3;
30342;PMS5003;17145;49.902;8.680;2023-04-03T03:04:21;4;4;
30342;PMS5003;17145;49.902;8.680;2023-04-03T03:06:48;3;3;
30342;PMS5003;17145;49.902;8.680;2023-04-03T03:09:16;2;2;
30342;PMS5003;17145;49.902;8.680;2023-04-03T03:11:44;2;2;
30342;PMS5003;17145;49.902;8.680;2023-04-03T03:14:11;1;1;
30342;PMS5003;17145;49.902;8.680;2023-04-03T03:16:39;0;0;
30342;PMS5003;17145;49.902;8.680;2023-04-03T03:19:06;2;1;
30342;PMS5003;17145;49.902;8.680;2023-04-03T03:21:33;2;2;
30342;PMS5003;17145;49.902;8.680;2023-04-03T03:24:01;1;1;
30342;PMS5003;17145;49.902;8.680;2023-04-03T03:26:28;1;1;
30342;PMS5003;17145;49.902;8.680;2023-04-03T03:28:56;1;1;
30342;PMS5003;17145;49.902;8.680;2023-04-03T03:31:23;1;1;
30342;PMS5003;17145;49.902;8.680;2023-04-03T03:33:50;1;1;
30342;PMS5003;17145;49.902;8.680;2023-04-03T03:36:18;0;0;
30342;PMS5003;17145;49.902;8.680;2023-04-03T03:38:46;2;2;
30342;PMS5003;17145;49.902;8.680;2023-04-03T03:41:13;2;1;
30342;PMS5003;17145;49.902;8.680;2023-04-03T03:43:41;2;1;
30342;PMS5003;17145;49.902;8.680;2023-04-03T03:46:09;4;2;
30342;PMS5003;17145;49.902;8.680;2023-04-03T03:48:36;1;1;
30342;PMS5003;17145;49.902;8.680;2023-04-03T03:51:04;4;3;
30342;PMS5003;17145;49.902;8.680;2023-04-03T03:53:32;3;1;
30342;PMS5003;17145;49.902;8.680;2023-04-03T03:55:59;2;2;
30342;PMS5003;17145;49.902;8.680;2023-04-03T03:58:27;2;2;
30342;PMS5003;17145;49.902;8.680;2023-04-03T04:00:55;4;4;
30342;PMS5003;17145;49.902;8.680;2023-04-03T04:03:22;1;1;
30342;PMS5003;17145;49.902;8.680;2023-04-03T04:05:50;1;1;
30342;PMS5003;17145;49.902;8.680;2023-04-03T04:08:18;2;2;
30342;PMS5003;17145;49.902;8.680;2023-04-03T04:10:45;2;1;
30342;PMS5003;17145;49.902;8.680;2023-04-03T04:13:13;1;1;
30342;PMS5003;17145;49.902;8.680;2023-04-03T04:15:40;2;1;
30342;PMS5003;17145;49.902;8.680;2023-04-03T04:18:09;2;1;
30342;PMS5003;17145;49.902;8.680;2023-04-03T04:20:37;1;1;
30342;PMS5003;17145;49.902;8.680;2023-04-03T04:23:04;1;1;
30342;PMS5003;17145;49.902;8.680;2023-04-03T04:25:32;1;1;
30342;PMS5003;17145;49.902;8.680;2023-04-03T04:28:00;0;0;
30342;PMS5003;17145;49.902;8.680;2023-04-03T04:30:28;1;1;
30342;PMS5003;17145;49.902;8.680;2023-04-03T04:32:55;1;0;
30342;PMS5003;17145;49.902;8.680;2023-04-03T04:35:22;1;1;
30342;PMS5003;17145;49.902;8.680;2023-04-03T04:37:50;0;0;
30342;PMS5003;17145;49.902;8.680;2023-04-03T04:40:18;1;1;
30342;PMS5003;17145;49.902;8.680;2023-04-03T04:42:45;1;1;
30342;PMS5003;17145;49.902;8.680;2023-04-03T04:45:13;1;1;
30342;PMS5003;17145;49.902;8.680;2023-04-03T04:47:40;1;0;
30342;PMS5003;17145;49.902;8.680;2023-04-03T04:50:08;1;1;
30342;PMS5003;17145;49.902;8.680;2023-04-03T04:52:37;0;0;
30342;PMS5003;17145;49.902;8.680;2023-04-03T04:55:05;1;1;
30342;PMS5003;17145;49.902;8.680;2023-04-03T04:57:33;1;1;
30342;PMS5003;17145;49.902;8.680;2023-04-03T05:00:01;2;1;
30342;PMS5003;17145;49.902;8.680;2023-04-03T05:02:29;1;1;
30342;PMS5003;17145;49.902;8.680;2023-04-03T05:04:56;1;1;
30342;PMS5003;17145;49.902;8.680;2023-04-03T05:07:24;1;1;
30342;PMS5003;17145;49.902;8.680;2023-04-03T05:09:51;2;2;
30342;PMS5003;17145;49.902;8.680;2023-04-03T05:12:19;1;1;
30342;PMS5003;17145;49.902;8.680;2023-04-03T05:14:46;2;2;
30342;PMS5003;17145;49.902;8.680;2023-04-03T05:17:14;2;2;
30342;PMS5003;17145;49.902;8.680;2023-04-03T05:19:41;2;2;
30342;PMS5003;17145;49.902;8.680;2023-04-03T05:22:09;2;2;
30342;PMS5003;17145;49.902;8.680;2023-04-03T05:24:36;1;1;
30342;PMS5003;17145;49.902;8.680;2023-04-03T05:27:04;2;2;
30342;PMS5003;17145;49.902;8.680;2023-04-03T05:29:31;2;2;
30342;PMS5003;17145;49.902;8.680;2023-04-03T05:31:58;2;2;
30342;PMS5003;17145;49.902;8.680;2023-04-03T05:34:26;3;3;
30342;PMS5003;17145;49.902;8.680;2023-04-03T05:36:53;2;2;
30342;PMS5003;17145;49.902;8.680;2023-04-03T05:39:21;3;2;
30342;PMS5003;17145;49.902;8.680;2023-04-03T05:41:48;2;2;
30342;PMS5003;17145;49.902;8.680;2023-04-03T05:44:16;2;2;
30342;PMS5003;17145;49.902;8.680;2023-04-03T05:46:43;6;4;
30342;PMS5003;17145;49.902;8.680;2023-04-03T05:49:10;3;3;
30342;PMS5003;17145;49.902;8.680;2023-04-03T05:51:38;4;3;
30342;PMS5003;17145;49.902;8.680;2023-04-03T05:54:09;4;4;
30342;PMS5003;17145;49.902;8.680;2023-04-03T05:56:40;6;5;
30342;PMS5003;17145;49.902;8.680;2023-04-03T05:59:07;9;9;
30342;PMS5003;17145;49.902;8.680;2023-04-03T06:01:35;9;8;
30342;PMS5003;17145;49.902;8.680;2023-04-03T06:04:03;6;6;
30342;PMS5003;17145;49.902;8.680;2023-04-03T06:09:10;2;2;
30342;PMS5003;17145;49.902;8.680;2023-04-03T06:11:38;2;2;
30342;PMS5003;17145;49.902;8.680;2023-04-03T06:14:05;4;4;
30342;PMS5003;17145;49.902;8.680;2023-04-03T06:16:33;12;12;
30342;PMS5003;17145;49.902;8.680;2023-04-03T06:19:01;12;12;
30342;PMS5003;17145;49.902;8.680;2023-04-03T06:21:28;14;13;
30342;PMS5003;17145;49.902;8.680;2023-04-03T06:23:56;11;11;
30342;PMS5003;17145;49.902;8.680;2023-04-03T06:26:24;13;12;
30342;PMS5003;17145;49.902;8.680;2023-04-03T06:28:51;14;13;
30342;PMS5003;17145;49.902;8.680;2023-04-03T06:31:19;14;14;
30342;PMS5003;17145;49.902;8.680;2023-04-03T06:33:46;21;21;
30342;PMS5003;17145;49.902;8.680;2023-04-03T06:36:13;11;10;
30342;PMS5003;17145;49.902;8.680;2023-04-03T06:38:42;22;21;
30342;PMS5003;17145;49.902;8.680;2023-04-03T06:41:10;27;26;
30342;PMS5003;17145;49.902;8.680;2023-04-03T06:43:37;21;21;
30342;PMS5003;17145;49.902;8.680;2023-04-03T06:46:05;12;10;
30342;PMS5003;17145;49.902;8.680;2023-04-03T06:48:32;10;9;
30342;PMS5003;17145;49.902;8.680;2023-04-03T06:51:00;23;21;
30342;PMS5003;17145;49.902;8.680;2023-04-03T06:53:27;22;22;
30342;PMS5003;17145;49.902;8.680;2023-04-03T06:55:54;17;17;
30342;PMS5003;17145;49.902;8.680;2023-04-03T06:58:22;31;28;
30342;PMS5003;17145;49.902;8.680;2023-04-03T07:00:50;32;32;
30342;PMS5003;17145;49.902;8.680;2023-04-03T07:03:17;20;20;
30342;PMS5003;17145;49.902;8.680;2023-04-03T07:05:45;6;6;
30342;PMS5003;17145;49.902;8.680;2023-04-03T07:08:12;3;3;
30342;PMS5003;17145;49.902;8.680;2023-04-03T07:10:40;3;3;
30342;PMS5003;17145;49.902;8.680;2023-04-03T07:13:07;1;1;
30342;PMS5003;17145;49.902;8.680;2023-04-03T07:15:34;1;1;
30342;PMS5003;17145;49.902;8.680;2023-04-03T07:18:02;3;3;
30342;PMS5003;17145;49.902;8.680;2023-04-03T07:20:29;3;2;
30342;PMS5003;17145;49.902;8.680;2023-04-03T07:22:57;3;3;
30342;PMS5003;17145;49.902;8.680;2023-04-03T07:25:24;2;2;
30342;PMS5003;17145;49.902;8.680;2023-04-03T07:27:52;3;2;
30342;PMS5003;17145;49.902;8.680;2023-04-03T07:30:19;1;1;
30342;PMS5003;17145;49.902;8.680;2023-04-03T07:32:46;3;3;
30342;PMS5003;17145;49.902;8.680;2023-04-03T07:35:14;2;2;
30342;PMS5003;17145;49.902;8.680;2023-04-03T07:37:41;2;2;
30342;PMS5003;17145;49.902;8.680;2023-04-03T07:40:09;2;1;
30342;PMS5003;17145;49.902;8.680;2023-04-03T07:42:37;2;2;
30342;PMS5003;17145;49.902;8.680;2023-04-03T07:45:05;1;1;
30342;PMS5003;17145;49.902;8.680;2023-04-03T07:47:33;2;2;
30342;PMS5003;17145;49.902;8.680;2023-04-03T07:50:00;2;1;
30342;PMS5003;17145;49.902;8.680;2023-04-03T07:52:27;2;2;
30342;PMS5003;17145;49.902;8.680;2023-04-03T07:54:55;4;3;
30342;PMS5003;17145;49.902;8.680;2023-04-03T07:57:22;1;1;
30342;PMS5003;17145;49.902;8.680;2023-04-03T07:59:50;1;1;
30342;PMS5003;17145;49.902;8.680;2023-04-03T08:02:17;2;2;
30342;PMS5003;17145;49.902;8.680;2023-04-03T08:04:45;3;2;
30342;PMS5003;17145;49.902;8.680;2023-04-03T08:07:12;3;2;
30342;PMS5003;17145;49.902;8.680;2023-04-03T08:09:39;1;1;
30342;PMS5003;17145;49.902;8.680;2023-04-03T08:12:07;2;2;
30342;PMS5003;17145;49.902;8.680;2023-04-03T08:14:34;3;2;
30342;PMS5003;17145;49.902;8.680;2023-04-03T08:17:02;1;1;
30342;PMS5003;17145;49.902;8.680;2023-04-03T08:19:29;1;1;
30342;PMS5003;17145;49.902;8.680;2023-04-03T08:21:58;2;2;
30342;PMS5003;17145;49.902;8.680;2023-04-03T08:24:25;3;1;
30342;PMS5003;17145;49.902;8.680;2023-04-03T08:26:52;1;1;
30342;PMS5003;17145;49.902;8.680;2023-04-03T08:29:20;1;1;
30342;PMS5003;17145;49.902;8.680;2023-04-03T08:31:47;2;1;
30342;PMS5003;17145;49.902;8.680;2023-04-03T08:34:15;2;1;
30342;PMS5003;17145;49.902;8.680;2023-04-03T08:36:43;2;2;
30342;PMS5003;17145;49.902;8.680;2023-04-03T08:39:11;2;2;
30342;PMS5003;17145;49.902;8.680;2023-04-03T08:41:40;2;2;
30342;PMS5003;17145;49.902;8.680;2023-04-03T08:44:13;1;1;
30342;PMS5003;17145;49.902;8.680;2023-04-03T08:46:52;2;1;
30342;PMS5003;17145;49.902;8.680;2023-04-03T08:49:28;2;2;
30342;PMS5003;17145;49.902;8.680;2023-04-03T08:51:59;1;1;
30342;PMS5003;17145;49.902;8.680;2023-04-03T08:54:32;1;1;
30342;PMS5003;17145;49.902;8.680;2023-04-03T08:57:04;2;2;
30342;PMS5003;17145;49.902;8.680;2023-04-03T08:59:33;2;2;
30342;PMS5003;17145;49.902;8.680;2023-04-03T09:02:04;3;3;
30342;PMS5003;17145;49.902;8.680;2023-04-03T09:04:45;2;2;
30342;PMS5003;17145;49.902;8.680;2023-04-03T09:07:13;2;1;
30342;PMS5003;17145;49.902;8.680;2023-04-03T09:09:48;2;2;
30342;PMS5003;17145;49.902;8.680;2023-04-03T09:12:17;2;2;
30342;PMS5003;17145;49.902;8.680;2023-04-03T09:14:52;2;2;
30342;PMS5003;17145;49.902;8.680;2023-04-03T09:17:31;2;2;
30342;PMS5003;17145;49.902;8.680;2023-04-03T09:20:10;1;1;
30342;PMS5003;17145;49.902;8.680;2023-04-03T09:22:46;1;1;
30342;PMS5003;17145;49.902;8.680;2023-04-03T09:25:14;2;2;
30342;PMS5003;17145;49.902;8.680;2023-04-03T09:27:45;2;1;
30342;PMS5003;17145;49.902;8.680;2023-04-03T09:30:14;4;2;
30342;PMS5003;17145;49.902;8.680;2023-04-03T09:32:44;3;2;
30342;PMS5003;17145;49.902;8.680;2023-04-03T09:35:16;1;1;
30342;PMS5003;17145;49.902;8.680;2023-04-03T09:37:48;1;1;
30342;PMS5003;17145;49.902;8.680;2023-04-03T09:42:57;2;2;
30342;PMS5003;17145;49.902;8.680;2023-04-03T09:45:26;1;1;
30342;PMS5003;17145;49.902;8.680;2023-04-03T09:48:06;2;2;
30342;PMS5003;17145;49.902;8.680;2023-04-03T09:50:35;2;2;
30342;PMS5003;17145;49.902;8.680;2023-04-03T09:53:04;3;2;
30342;PMS5003;17145;49.902;8.680;2023-04-03T10:00:54;1;1;
30342;PMS5003;17145;49.902;8.680;2023-04-03T10:03:24;1;1;
30342;PMS5003;17145;49.902;8.680;2023-04-03T10:05:55;2;2;
30342;PMS5003;17145;49.902;8.680;2023-04-03T10:08:25;1;1;
30342;PMS5003;17145;49.902;8.680;2023-04-03T10:13:35;2;2;
30342;PMS5003;17145;49.902;8.680;2023-04-03T10:16:09;2;2;
30342;PMS5003;17145;49.902;8.680;2023-04-03T10:18:44;3;2;
30342;PMS5003;17145;49.902;8.680;2023-04-03T10:21:19;2;2;
30342;PMS5003;17145;49.902;8.680;2023-04-03T10:23:53;2;2;
30342;PMS5003;17145;49.902;8.680;2023-04-03T10:26:31;2;2;
30342;PMS5003;17145;49.902;8.680;2023-04-03T10:29:06;2;2;
30342;PMS5003;17145;49.902;8.680;2023-04-03T10:31:44;2;2;
30342;PMS5003;17145;49.902;8.680;2023-04-03T10:34:21;4;3;
30342;PMS5003;17145;49.902;8.680;2023-04-03T10:36:56;1;1;
30342;PMS5003;17145;49.902;8.680;2023-04-03T10:39:35;2;2;
30342;PMS5003;17145;49.902;8.680;2023-04-03T10:42:13;1;1;
30342;PMS5003;17145;49.902;8.680;2023-04-03T10:44:51;2;2;
30342;PMS5003;17145;49.902;8.680;2023-04-03T10:47:29;2;2;
30342;PMS5003;17145;49.902;8.680;2023-04-03T10:50:10;2;1;
30342;PMS5003;17145;49.902;8.680;2023-04-03T10:52:52;2;2;
30342;PMS5003;17145;49.902;8.680;2023-04-03T10:55:31;3;2;
30342;PMS5003;17145;49.902;8.680;2023-04-03T10:58:05;2;1;
30342;PMS5003;17145;49.902;8.680;2023-04-03T11:00:39;2;1;
30342;PMS5003;17145;49.902;8.680;2023-04-03T11:03:11;1;1;
30342;PMS5003;17145;49.902;8.680;2023-04-03T11:05:43;2;1;
30342;PMS5003;17145;49.902;8.680;2023-04-03T11:08:13;2;2;
30342;PMS5003;17145;49.902;8.680;2023-04-03T11:10:49;1;1;
30342;PMS5003;17145;49.902;8.680;2023-04-03T11:13:22;2;2;
30342;PMS5003;17145;49.902;8.680;2023-04-03T11:15:54;2;2;
30342;PMS5003;17145;49.902;8.680;2023-04-03T11:18:26;2;1;
30342;PMS5003;17145;49.902;8.680;2023-04-03T11:21:00;2;1;
30342;PMS5003;17145;49.902;8.680;2023-04-03T11:23:31;1;1;
30342;PMS5003;17145;49.902;8.680;2023-04-03T11:26:06;2;2;
30342;PMS5003;17145;49.902;8.680;2023-04-03T11:28:36;1;1;
30342;PMS5003;17145;49.902;8.680;2023-04-03T11:31:08;2;2;
30342;PMS5003;17145;49.902;8.680;2023-04-03T11:33:45;2;2;
30342;PMS5003;17145;49.902;8.680;2023-04-03T11:36:22;1;1;
30342;PMS5003;17145;49.902;8.680;2023-04-03T11:38:53;3;3;
30342;PMS5003;17145;49.902;8.680;2023-04-03T11:41:25;2;2;
30342;PMS5003;17145;49.902;8.680;2023-04-03T11:43:56;3;2;
30342;PMS5003;17145;49.902;8.680;2023-04-03T11:51:54;3;2;
30342;PMS5003;17145;49.902;8.680;2023-04-03T11:59:49;4;3;
30342;PMS5003;17145;49.902;8.680;2023-04-03T12:10:32;2;2;
30342;PMS5003;17145;49.902;8.680;2023-04-03T12:13:00;2;2;
30342;PMS5003;17145;49.902;8.680;2023-04-03T12:20:54;3;3;
30342;PMS5003;17145;49.902;8.680;2023-04-03T12:23:24;3;2;
30342;PMS5003;17145;49.902;8.680;2023-04-03T12:25:59;2;1;
30342;PMS5003;17145;49.902;8.680;2023-04-03T12:28:34;3;2;
30342;PMS5003;17145;49.902;8.680;2023-04-03T12:31:04;2;2;
30342;PMS5003;17145;49.902;8.680;2023-04-03T12:33:37;3;2;
30342;PMS5003;17145;49.902;8.680;2023-04-03T12:36:18;3;2;
30342;PMS5003;17145;49.902;8.680;2023-04-03T12:38:59;1;1;
30342;PMS5003;17145;49.902;8.680;2023-04-03T12:41:36;3;2;
30342;PMS5003;17145;49.902;8.680;2023-04-03T12:44:16;2;2;
30342;PMS5003;17145;49.902;8.680;2023-04-03T12:46:59;2;2;
30342;PMS5003;17145;49.902;8.680;2023-04-03T12:49:35;2;2;
30342;PMS5003;17145;49.902;8.680;2023-04-03T12:52:06;2;2;
30342;PMS5003;17145;49.902;8.680;2023-04-03T12:54:45;2;2;
30342;PMS5003;17145;49.902;8.680;2023-04-03T12:57:17;1;1;
30342;PMS5003;17145;49.902;8.680;2023-04-03T12:59:46;1;1;
30342;PMS5003;17145;49.902;8.680;2023-04-03T13:02:20;2;2;
30342;PMS5003;17145;49.902;8.680;2023-04-03T13:04:50;2;2;
30342;PMS5003;17145;49.902;8.680;2023-04-03T13:07:22;2;2;
30342;PMS5003;17145;49.902;8.680;2023-04-03T13:09:57;2;2;
30342;PMS5003;17145;49.902;8.680;2023-04-03T13:12:26;2;2;
30342;PMS5003;17145;49.902;8.680;2023-04-03T13:14:54;5;3;
30342;PMS5003;17145;49.902;8.680;2023-04-03T13:17:23;2;2;
30342;PMS5003;17145;49.902;8.680;2023-04-03T13:19:52;2;2;
30342;PMS5003;17145;49.902;8.680;2023-04-03T13:22:25;2;2;
30342;PMS5003;17145;49.902;8.680;2023-04-03T13:24:57;2;1;
30342;PMS5003;17145;49.902;8.680;2023-04-03T13:27:28;3;3;
30342;PMS5003;17145;49.902;8.680;2023-04-03T13:29:58;1;1;
30342;PMS5003;17145;49.902;8.680;2023-04-03T13:32:29;2;2;
30342;PMS5003;17145;49.902;8.680;2023-04-03T13:34:58;2;2;
30342;PMS5003;17145;49.902;8.680;2023-04-03T13:37:27;3;3;
30342;PMS5003;17145;49.902;8.680;2023-04-03T13:39:57;2;2;
30342;PMS5003;17145;49.902;8.680;2023-04-03T13:42:28;1;1;
30342;PMS5003;17145;49.902;8.680;2023-04-03T13:47:38;2;1;
30342;PMS5003;17145;49.902;8.680;2023-04-03T13:52:43;2;2;
30342;PMS5003;17145;49.902;8.680;2023-04-03T13:55:18;4;3;
30342;PMS5003;17145;49.902;8.680;2023-04-03T13:57:50;4;3;
30342;PMS5003;17145;49.902;8.680;2023-04-03T14:00:22;2;2;
30342;PMS5003;17145;49.902;8.680;2023-04-03T14:02:58;2;2;
30342;PMS5003;17145;49.902;8.680;2023-04-03T14:05:26;3;2;
30342;PMS5003;17145;49.902;8.680;2023-04-03T14:07:54;2;2;
30342;PMS5003;17145;49.902;8.680;2023-04-03T14:10:22;2;2;
30342;PMS5003;17145;49.902;8.680;2023-04-03T14:12:49;2;2;
30342;PMS5003;17145;49.902;8.680;2023-04-03T14:15:18;2;2;
30342;PMS5003;17145;49.902;8.680;2023-04-03T14:17:49;2;2;
30342;PMS5003;17145;49.902;8.680;2023-04-03T14:20:18;2;2;
30342;PMS5003;17145;49.902;8.680;2023-04-03T14:22:47;1;1;
30342;PMS5003;17145;49.902;8.680;2023-04-03T14:25:15;2;2;
30342;PMS5003;17145;49.902;8.680;2023-04-03T14:27:45;3;3;
30342;PMS5003;17145;49.902;8.680;2023-04-03T14:30:15;1;1;
30342;PMS5003;17145;49.902;8.680;2023-04-03T14:32:44;2;2;
30342;PMS5003;17145;49.902;8.680;2023-04-03T14:35:12;2;1;
30342;PMS5003;17145;49.902;8.680;2023-04-03T14:37:40;2;2;
30342;PMS5003;17145;49.902;8.680;2023-04-03T14:40:08;1;1;
30342;PMS5003;17145;49.902;8.680;2023-04-03T14:42:39;2;2;
30342;PMS5003;17145;49.902;8.680;2023-04-03T14:45:08;3;2;
30342;PMS5003;17145;49.902;8.680;2023-04-03T14:47:39;2;2;
30342;PMS5003;17145;49.902;8.680;2023-04-03T14:50:12;2;2;
30342;PMS5003;17145;49.902;8.680;2023-04-03T14:52:43;2;2;
30342;PMS5003;17145;49.902;8.680;2023-04-03T14:55:11;1;1;
30342;PMS5003;17145;49.902;8.680;2023-04-03T14:57:41;2;1;
30342;PMS5003;17145;49.902;8.680;2023-04-03T15:00:11;4;3;
30342;PMS5003;17145;49.902;8.680;2023-04-03T15:02:42;2;1;
30342;PMS5003;17145;49.902;8.680;2023-04-03T15:05:10;3;1;
30342;PMS5003;17145;49.902;8.680;2023-04-03T15:07:39;1;1;
30342;PMS5003;17145;49.902;8.680;2023-04-03T15:12:44;2;2;
30342;PMS5003;17145;49.902;8.680;2023-04-03T15:15:13;3;3;
30342;PMS5003;17145;49.902;8.680;2023-04-03T15:17:42;4;2;
30342;PMS5003;17145;49.902;8.680;2023-04-03T15:20:11;3;2;
30342;PMS5003;17145;49.902;8.680;2023-04-03T15:22:41;1;1;
30342;PMS5003;17145;49.902;8.680;2023-04-03T15:25:08;2;1;
30342;PMS5003;17145;49.902;8.680;2023-04-03T15:27:36;4;2;
30342;PMS5003;17145;49.902;8.680;2023-04-03T15:30:07;2;1;
30342;PMS5003;17145;49.902;8.680;2023-04-03T15:32:40;2;2;
30342;PMS5003;17145;49.902;8.680;2023-04-03T15:35:07;2;2;
30342;PMS5003;17145;49.902;8.680;2023-04-03T15:37:35;1;1;
30342;PMS5003;17145;49.902;8.680;2023-04-03T15:40:03;2;2;
30342;PMS5003;17145;49.902;8.680;2023-04-03T15:42:31;4;2;
30342;PMS5003;17145;49.902;8.680;2023-04-03T15:44:59;3;2;
30342;PMS5003;17145;49.902;8.680;2023-04-03T15:47:27;1;1;
30342;PMS5003;17145;49.902;8.680;2023-04-03T15:49:55;2;2;
30342;PMS5003;17145;49.902;8.680;2023-04-03T15:52:23;2;2;
30342;PMS5003;17145;49.902;8.680;2023-04-03T15:54:50;2;2;
30342;PMS5003;17145;49.902;8.680;2023-04-03T15:57:18;1;1;
30342;PMS5003;17145;49.902;8.680;2023-04-03T15:59:45;2;2;
30342;PMS5003;17145;49.902;8.680;2023-04-03T16:02:13;1;1;
30342;PMS5003;17145;49.902;8.680;2023-04-03T16:04:40;1;1;
30342;PMS5003;17145;49.902;8.680;2023-04-03T16:07:08;2;1;
30342;PMS5003;17145;49.902;8.680;2023-04-03T16:09:36;2;1;
30342;PMS5003;17145;49.902;8.680;2023-04-03T16:12:03;1;1;
30342;PMS5003;17145;49.902;8.680;2023-04-03T16:14:31;3;2;
30342;PMS5003;17145;49.902;8.680;2023-04-03T16:16:59;3;2;
30342;PMS5003;17145;49.902;8.680;2023-04-03T16:19:27;2;1;
30342;PMS5003;17145;49.902;8.680;2023-04-03T16:21:56;2;1;
30342;PMS5003;17145;49.902;8.680;2023-04-03T16:24:24;2;2;
30342;PMS5003;17145;49.902;8.680;2023-04-03T16:26:52;1;1;
30342;PMS5003;17145;49.902;8.680;2023-04-03T16:29:19;2;2;
30342;PMS5003;17145;49.902;8.680;2023-04-03T16:31:47;2;1;
30342;PMS5003;17145;49.902;8.680;2023-04-03T16:34:14;2;2;
30342;PMS5003;17145;49.902;8.680;2023-04-03T16:36:42;2;2;
30342;PMS5003;17145;49.902;8.680;2023-04-03T16:39:09;3;3;
30342;PMS5003;17145;49.902;8.680;2023-04-03T16:41:36;3;2;
30342;PMS5003;17145;49.902;8.680;2023-04-03T16:44:04;2;2;
30342;PMS5003;17145;49.902;8.680;2023-04-03T16:46:31;2;2;
30342;PMS5003;17145;49.902;8.680;2023-04-03T16:48:59;2;2;
30342;PMS5003;17145;49.902;8.680;2023-04-03T16:51:26;2;2;
30342;PMS5003;17145;49.902;8.680;2023-04-03T16:53:55;2;2;
30342;PMS5003;17145;49.902;8.680;2023-04-03T16:56:22;2;2;
30342;PMS5003;17145;49.902;8.680;2023-04-03T16:58:50;1;1;
30342;PMS5003;17145;49.902;8.680;2023-04-03T17:01:18;2;2;
30342;PMS5003;17145;49.902;8.680;2023-04-03T17:03:48;1;1;
30342;PMS5003;17145;49.902;8.680;2023-04-03T17:06:16;2;2;
30342;PMS5003;17145;49.902;8.680;2023-04-03T17:08:47;0;0;
30342;PMS5003;17145;49.902;8.680;2023-04-03T17:11:16;1;1;
30342;PMS5003;17145;49.902;8.680;2023-04-03T17:13:44;1;1;
30342;PMS5003;17145;49.902;8.680;2023-04-03T17:16:13;2;2;
30342;PMS5003;17145;49.902;8.680;2023-04-03T17:18:42;2;2;
30342;PMS5003;17145;49.902;8.680;2023-04-03T17:21:11;2;1;
30342;PMS5003;17145;49.902;8.680;2023-04-03T17:23:40;1;1;
30342;PMS5003;17145;49.902;8.680;2023-04-03T17:26:12;3;2;
30342;PMS5003;17145;49.902;8.680;2023-04-03T17:28:40;1;1;
30342;PMS5003;17145;49.902;8.680;2023-04-03T17:31:08;1;1;
30342;PMS5003;17145;49.902;8.680;2023-04-03T17:33:36;1;1;
30342;PMS5003;17145;49.902;8.680;2023-04-03T17:36:04;1;1;
30342;PMS5003;17145;49.902;8.680;2023-04-03T17:38:32;1;1;
30342;PMS5003;17145;49.902;8.680;2023-04-03T17:41:01;2;2;
30342;PMS5003;17145;49.902;8.680;2023-04-03T17:43:30;2;2;
30342;PMS5003;17145;49.902;8.680;2023-04-03T17:45:59;1;1;
30342;PMS5003;17145;49.902;8.680;2023-04-03T17:48:28;2;1;
30342;PMS5003;17145;49.902;8.680;2023-04-03T17:50:55;1;1;
30342;PMS5003;17145;49.902;8.680;2023-04-03T17:53:23;2;2;